Time;durP1;ratioP1;P1;durP2;ratioP2;P2;SDS_P1;SDS_P2;PMS_P1;PMS_P2;Temp;Humidity;BMP_temperature;BMP_pressure;BME280_temperature;BME280_humidity;BME280_pressure;Samples;Min_cycle;Max_cycle;Signal;HPM_P1;HPM_P2
2023/09/10 00:01:47;;;;;;;22.23;10.37;;;;;;;18.92;70.71;100649.22;4200733;28;21906;-68
2023/09/10 00:04:14;;;;;;;19.23;9.70;;;;;;;18.87;70.78;100640.72;4205179;28;20326;-69
2023/09/10 00:06:41;;;;;;;21.23;10.30;;;;;;;18.81;71.17;100643.16;4203019;28;20682;-68
2023/09/10 00:09:09;;;;;;;25.13;10.53;;;;;;;18.94;70.93;100653.47;4188735;28;20232;-68
2023/09/10 00:11:35;;;;;;;24.17;10.60;;;;;;;18.79;71.77;100644.41;4207964;28;22406;-67
2023/09/10 00:14:02;;;;;;;20.43;10.37;;;;;;;18.71;72.20;100650.03;4197698;28;20300;-69
2023/09/10 00:16:29;;;;;;;17.77;9.57;;;;;;;18.78;71.71;100653.69;4186036;28;22841;-67
2023/09/10 00:18:58;;;;;;;18.70;9.50;;;;;;;18.74;71.88;100650.50;4199486;28;21775;-68
2023/09/10 00:21:25;;;;;;;21.50;9.93;;;;;;;18.59;72.79;100649.69;4187619;28;21460;-69
2023/09/10 00:23:52;;;;;;;23.47;10.67;;;;;;;18.47;73.52;100652.97;4165197;28;20872;-67
2023/09/10 00:26:18;;;;;;;23.00;11.13;;;;;;;18.52;73.40;100650.50;4203163;28;23320;-70
2023/09/10 00:28:46;;;;;;;16.77;10.63;;;;;;;18.52;73.51;100655.13;4169821;28;20253;-68
2023/09/10 00:31:12;;;;;;;24.77;11.20;;;;;;;18.46;73.86;100644.94;4201614;28;20254;-68
2023/09/10 00:33:39;;;;;;;22.40;11.60;;;;;;;18.47;74.25;100650.22;4185827;28;20246;-69
2023/09/10 00:36:08;;;;;;;23.30;12.20;;;;;;;18.39;74.44;100647.59;4203484;28;20333;-68
2023/09/10 00:38:35;;;;;;;27.30;11.33;;;;;;;18.51;74.28;100648.78;4203089;28;21435;-70
2023/09/10 00:41:06;;;;;;;21.33;11.10;;;;;;;18.43;74.73;100650.81;4210428;28;20297;-67
2023/09/10 00:43:32;;;;;;;21.23;11.87;;;;;;;18.43;74.83;100646.16;4182022;28;21707;-67
2023/09/10 00:45:59;;;;;;;18.17;10.77;;;;;;;18.35;75.52;100649.88;4203501;28;20238;-68
2023/09/10 00:48:26;;;;;;;19.77;11.53;;;;;;;18.26;76.06;100652.94;4198462;28;20570;-68
2023/09/10 00:50:53;;;;;;;26.03;12.63;;;;;;;18.20;76.48;100644.44;4187839;28;20231;-69
2023/09/10 00:53:21;;;;;;;23.07;12.23;;;;;;;18.24;76.44;100649.53;4201001;28;20294;-68
2023/09/10 00:55:48;;;;;;;23.13;12.97;;;;;;;18.18;76.77;100641.06;4196463;28;20236;-68
2023/09/10 00:58:15;;;;;;;21.13;12.87;;;;;;;18.16;77.12;100648.63;4197529;28;20303;-67
2023/09/10 01:00:44;;;;;;;24.70;13.83;;;;;;;18.12;77.46;100646.44;4205084;28;21411;-69
2023/09/10 01:03:12;;;;;;;29.27;13.47;;;;;;;18.10;77.37;100632.94;4180411;28;20671;-68
2023/09/10 01:05:39;;;;;;;25.87;13.30;;;;;;;18.19;76.83;100637.28;4200845;28;21700;-67
2023/09/10 01:08:05;;;;;;;27.67;13.53;;;;;;;18.15;77.02;100640.59;4196163;28;20257;-67
2023/09/10 01:10:43;;;;;;;23.93;12.47;;;;;;;18.07;77.60;100640.72;4202375;28;20543;-68
2023/09/10 01:13:26;;;;;;;27.27;13.13;;;;;;;17.98;78.04;100635.34;4198303;28;20235;-67
2023/09/10 01:16:01;;;;;;;24.10;12.80;;;;;;;18.00;77.85;100638.75;4194165;28;20228;-69
2023/09/10 01:18:39;;;;;;;28.47;13.93;;;;;;;17.98;77.97;100640.81;4175835;28;20240;-67
2023/09/10 01:21:31;;;;;;;24.80;13.40;;;;;;;17.98;78.00;100640.81;4202533;28;20257;-68
2023/09/10 01:24:12;;;;;;;28.50;13.53;;;;;;;17.90;78.33;100643.63;4195750;28;20250;-68
2023/09/10 01:26:40;;;;;;;29.97;14.80;;;;;;;17.77;79.15;100646.19;4206521;28;20737;-67
2023/09/10 01:29:12;;;;;;;27.37;14.47;;;;;;;17.79;78.92;100639.47;4190771;28;23182;-69
2023/09/10 01:31:42;;;;;;;24.67;14.47;;;;;;;17.83;78.67;100646.25;4198982;28;20229;-66
2023/09/10 01:34:13;;;;;;;28.17;14.53;;;;;;;17.78;79.52;100647.91;4196865;28;20252;-71
2023/09/10 01:36:46;;;;;;;24.30;14.60;;;;;;;17.77;79.31;100648.94;4201629;28;20233;-70
2023/09/10 01:39:27;;;;;;;24.60;14.20;;;;;;;17.83;79.01;100646.25;4166166;28;22502;-68
2023/09/10 01:41:55;;;;;;;22.47;14.13;;;;;;;17.84;79.23;100642.50;4204805;28;20403;-69
2023/09/10 01:44:23;;;;;;;26.60;14.70;;;;;;;17.74;79.72;100642.78;4174260;28;20234;-68
2023/09/10 01:46:53;;;;;;;30.00;15.97;;;;;;;17.74;79.78;100642.78;4198317;28;20243;-69
2023/09/10 01:49:19;;;;;;;26.27;14.97;;;;;;;17.78;79.36;100645.16;4178859;28;22057;-71
2023/09/10 01:51:47;;;;;;;26.73;16.37;;;;;;;17.72;79.90;100638.53;4201292;28;20255;-69
2023/09/10 01:54:14;;;;;;;25.63;14.60;;;;;;;17.66;80.21;100639.31;4191426;28;23043;-69
2023/09/10 01:56:40;;;;;;;28.63;15.83;;;;;;;17.67;80.27;100639.09;4196545;28;20919;-68
2023/09/10 01:59:07;;;;;;;28.47;16.43;;;;;;;17.64;80.50;100638.63;4196161;28;20380;-67
2023/09/10 02:01:34;;;;;;;31.27;16.67;;;;;;;17.53;81.07;100627.09;4198604;28;20232;-68
2023/09/10 02:04:00;;;;;;;27.30;16.43;;;;;;;17.55;81.15;100635.16;4195863;28;20235;-68
2023/09/10 02:06:27;;;;;;;25.90;17.10;;;;;;;17.55;81.42;100629.69;4147465;28;20312;-68
2023/09/10 02:08:54;;;;;;;30.97;17.67;;;;;;;17.49;81.76;100631.28;4191017;28;20247;-67
2023/09/10 02:11:21;;;;;;;29.63;17.37;;;;;;;17.61;81.08;100631.66;4188081;28;21456;-68
2023/09/10 02:13:48;;;;;;;33.27;17.30;;;;;;;17.51;81.70;100625.59;4178994;28;20278;-68
2023/09/10 02:16:15;;;;;;;27.67;17.50;;;;;;;17.47;81.97;100627.88;4214694;28;21228;-68
2023/09/10 02:18:41;;;;;;;34.53;17.60;;;;;;;17.50;81.90;100623.91;4186891;28;20236;-69
2023/09/10 02:21:11;;;;;;;37.90;19.07;;;;;;;17.38;83.01;100624.38;4162466;28;21500;-71
2023/09/10 02:23:42;;;;;;;30.83;18.93;;;;;;;17.41;82.40;100624.00;4197138;28;20257;-68
2023/09/10 02:26:08;;;;;;;33.23;17.70;;;;;;;17.46;81.92;100626.16;4184634;28;20344;-68
2023/09/10 02:28:35;;;;;;;33.67;19.30;;;;;;;17.37;82.72;100628.16;4204954;28;20421;-69
2023/09/10 02:31:06;;;;;;;37.93;18.17;;;;;;;17.52;82.20;100635.53;4213886;28;20473;-69
2023/09/10 02:33:34;;;;;;;33.07;17.90;;;;;;;17.60;81.61;100632.69;4184656;28;20239;-68
2023/09/10 02:36:02;;;;;;;36.17;18.70;;;;;;;17.65;81.53;100632.13;4166718;28;20232;-68
2023/09/10 02:38:29;;;;;;;31.77;18.33;;;;;;;17.76;81.00;100641.75;4165742;28;21630;-70
2023/09/10 02:40:56;;;;;;;30.37;18.43;;;;;;;17.76;80.89;100633.53;4209190;28;22092;-68
2023/09/10 02:43:22;;;;;;;34.40;18.60;;;;;;;17.76;80.98;100636.28;4201016;28;21474;-68
2023/09/10 02:45:50;;;;;;;36.83;17.93;;;;;;;17.73;81.07;100643.81;4197204;28;20236;-68
2023/09/10 02:48:17;;;;;;;35.57;19.30;;;;;;;17.59;81.52;100636.47;4191067;28;20230;-69
2023/09/10 02:50:43;;;;;;;31.60;18.77;;;;;;;17.41;82.68;100639.56;4185772;28;21206;-68
2023/09/10 02:53:10;;;;;;;33.10;17.60;;;;;;;17.42;82.66;100638.53;4206858;28;20244;-69
2023/09/10 02:55:37;;;;;;;39.27;19.17;;;;;;;17.64;81.80;100630.44;4205203;28;22213;-68
2023/09/10 02:58:03;;;;;;;30.30;18.33;;;;;;;17.56;81.73;100640.44;4203260;28;20232;-68
2023/09/10 03:00:30;;;;;;;39.40;19.03;;;;;;;17.39;82.69;100630.69;4201840;28;20299;-67
2023/09/10 03:02:57;;;;;;;37.40;19.97;;;;;;;17.25;83.61;100630.50;4205467;28;21356;-70
2023/09/10 03:05:24;;;;;;;31.53;18.60;;;;;;;17.34;83.69;100634.00;4197555;28;20224;-68
2023/09/10 03:07:52;;;;;;;34.57;19.30;;;;;;;17.39;83.22;100639.78;4189915;28;21132;-69
2023/09/10 03:10:19;;;;;;;32.13;18.23;;;;;;;17.45;82.71;100635.41;4203935;28;20608;-69
2023/09/10 03:12:48;;;;;;;34.17;18.33;;;;;;;17.29;83.38;100633.72;4226397;28;21895;-69
2023/09/10 03:15:15;;;;;;;34.43;19.10;;;;;;;17.19;84.04;100639.47;4215465;28;20243;-68
2023/09/10 03:17:41;;;;;;;39.70;19.80;;;;;;;17.18;84.02;100637.75;4193030;28;21106;-67
2023/09/10 03:20:09;;;;;;;33.43;20.40;;;;;;;17.08;84.52;100631.69;4201549;28;20245;-70
2023/09/10 03:22:37;;;;;;;34.20;19.43;;;;;;;17.16;84.10;100628.88;4215682;28;20228;-69
2023/09/10 03:25:04;;;;;;;32.90;18.30;;;;;;;17.03;85.03;100628.66;4197971;28;20603;-68
2023/09/10 03:27:31;;;;;;;33.93;18.70;;;;;;;17.05;85.10;100630.19;4179514;28;21946;-68
2023/09/10 03:29:57;;;;;;;30.07;18.20;;;;;;;17.03;85.01;100624.03;4203433;28;20256;-67
2023/09/10 03:32:24;;;;;;;34.03;18.33;;;;;;;16.97;85.10;100623.94;4190886;28;20235;-69
2023/09/10 03:34:51;;;;;;;31.53;19.63;;;;;;;16.90;85.86;100621.06;4186705;28;20232;-68
2023/09/10 03:37:17;;;;;;;34.60;18.70;;;;;;;16.88;86.07;100621.25;4202602;28;20251;-71
2023/09/10 03:39:44;;;;;;;31.10;18.40;;;;;;;16.94;85.76;100619.69;4209303;28;20322;-68
2023/09/10 03:42:11;;;;;;;33.13;18.57;;;;;;;16.87;86.07;100622.28;4194418;28;20535;-68
2023/09/10 03:44:37;;;;;;;31.67;18.53;;;;;;;16.80;86.56;100624.88;4199902;28;20243;-68
2023/09/10 03:47:04;;;;;;;34.30;19.07;;;;;;;16.77;86.77;100625.28;4205227;28;20225;-68
2023/09/10 03:49:30;;;;;;;40.63;19.60;;;;;;;16.85;86.54;100610.66;4205867;28;20631;-69
2023/09/10 03:51:57;;;;;;;31.27;19.00;;;;;;;16.79;86.80;100614.16;4191016;28;22020;-68
2023/09/10 03:54:24;;;;;;;36.20;18.73;;;;;;;16.77;87.10;100608.88;4174325;28;20236;-69
2023/09/10 03:56:51;;;;;;;34.60;18.90;;;;;;;16.75;86.98;100613.66;4204922;28;20690;-67
2023/09/10 03:59:18;;;;;;;35.33;18.97;;;;;;;16.72;87.40;100615.91;4181301;28;23917;-69
2023/09/10 04:01:45;;;;;;;36.93;20.10;;;;;;;16.72;87.30;100613.19;4205097;28;23435;-67
2023/09/10 04:04:12;;;;;;;32.90;19.10;;;;;;;16.73;87.52;100610.25;4199500;28;20244;-68
2023/09/10 04:06:38;;;;;;;29.17;18.43;;;;;;;16.99;86.11;100609.03;4210918;28;20318;-68
2023/09/10 04:09:05;;;;;;;32.97;19.57;;;;;;;16.93;86.25;100609.78;4200640;28;22529;-69
2023/09/10 04:11:31;;;;;;;37.17;19.37;;;;;;;16.98;85.68;100617.44;4187070;28;20240;-70
2023/09/10 04:13:58;;;;;;;34.43;19.37;;;;;;;16.77;86.77;100616.19;4202803;28;20446;-68
2023/09/10 04:16:26;;;;;;;39.80;20.17;;;;;;;16.65;87.89;100604.88;4166877;28;20228;-68
2023/09/10 04:18:53;;;;;;;31.77;19.43;;;;;;;16.60;88.38;100612.75;4185980;28;20232;-67
2023/09/10 04:21:21;;;;;;;33.30;19.27;;;;;;;16.50;88.63;100606.72;4224617;28;20395;-68
2023/09/10 04:23:48;;;;;;;40.33;20.00;;;;;;;16.58;88.36;100610.22;4190357;28;20314;-67
2023/09/10 04:26:15;;;;;;;43.20;19.80;;;;;;;16.68;87.99;100611.88;4203945;28;20263;-67
2023/09/10 04:28:42;;;;;;;38.53;19.97;;;;;;;16.57;88.73;100619.44;4220661;28;21852;-68
2023/09/10 04:31:14;;;;;;;45.23;23.77;;;;;;;16.62;88.67;100617.00;4214556;28;20336;-68
2023/09/10 04:33:41;;;;;;;37.73;20.27;;;;;;;16.84;87.58;100619.06;4234479;28;20404;-68
2023/09/10 04:36:08;;;;;;;39.10;20.77;;;;;;;16.80;87.45;100615.84;4222548;28;21131;-67
2023/09/10 04:38:35;;;;;;;36.97;19.50;;;;;;;16.77;87.85;100618.94;4241783;28;23110;-70
2023/09/10 04:41:02;;;;;;;33.67;20.70;;;;;;;16.73;88.16;100615.72;4185834;28;20235;-68
2023/09/10 04:43:29;;;;;;;37.63;19.93;;;;;;;16.74;88.10;100616.59;4210077;28;20753;-67
2023/09/10 04:45:55;;;;;;;30.90;19.13;;;;;;;16.81;87.96;100620.28;4196480;28;20232;-67
2023/09/10 04:48:22;;;;;;;31.97;19.10;;;;;;;16.95;86.87;100613.19;4208487;28;20421;-68
2023/09/10 04:50:49;;;;;;;35.67;19.33;;;;;;;16.89;87.23;100616.63;4201620;28;25828;-66
2023/09/10 04:53:16;;;;;;;33.47;19.43;;;;;;;16.99;86.71;100617.25;4218850;28;20235;-69
2023/09/10 04:55:43;;;;;;;31.60;19.13;;;;;;;17.00;86.60;100621.69;4197790;28;26108;-68
2023/09/10 04:58:12;;;;;;;34.97;20.07;;;;;;;17.05;86.76;100618.41;4203880;28;22847;-69
2023/09/10 05:00:40;;;;;;;31.60;18.30;;;;;;;17.22;85.03;100616.34;4218875;28;21100;-71
2023/09/10 05:03:07;;;;;;;32.17;18.20;;;;;;;17.45;84.07;100615.41;4195427;28;20238;-66
2023/09/10 05:05:33;;;;;;;30.73;18.20;;;;;;;17.46;83.80;100609.75;4207852;28;26186;-67
2023/09/10 05:08:00;;;;;;;30.03;18.30;;;;;;;17.43;84.15;100621.09;4201025;28;25072;-69
2023/09/10 05:10:29;;;;;;;30.77;17.67;;;;;;;17.45;84.04;100619.00;4178548;28;20310;-67
2023/09/10 05:12:55;;;;;;;42.70;20.07;;;;;;;17.42;84.10;100617.47;4175597;28;20667;-67
2023/09/10 05:15:22;;;;;;;33.07;18.20;;;;;;;17.60;82.97;100612.69;4199994;28;21769;-67
2023/09/10 05:17:49;;;;;;;32.67;18.63;;;;;;;17.65;83.07;100621.19;4205933;28;20313;-67
2023/09/10 05:20:16;;;;;;;29.23;17.73;;;;;;;17.78;82.26;100624.09;4204839;28;20267;-68
2023/09/10 05:22:42;;;;;;;30.47;18.23;;;;;;;17.88;81.66;100621.03;4205766;28;20234;-69
2023/09/10 05:25:09;;;;;;;30.13;18.23;;;;;;;17.95;81.24;100623.88;4210161;28;20563;-67
2023/09/10 05:27:37;;;;;;;27.40;17.30;;;;;;;18.05;80.49;100622.56;4207351;28;22003;-64
2023/09/10 05:30:05;;;;;;;31.73;17.83;;;;;;;18.12;80.48;100632.75;4212028;28;20838;-68
2023/09/10 05:32:32;;;;;;;33.60;17.77;;;;;;;18.12;80.39;100625.41;4192244;28;20229;-72
2023/09/10 05:34:59;;;;;;;33.33;17.73;;;;;;;18.15;80.07;100622.25;4203575;28;23064;-69
2023/09/10 05:37:26;;;;;;;28.10;17.60;;;;;;;17.99;80.73;100634.28;4165582;28;20324;-69
2023/09/10 05:39:52;;;;;;;25.30;15.90;;;;;;;18.13;80.08;100627.06;4204179;28;20247;-70
2023/09/10 05:42:19;;;;;;;29.17;16.27;;;;;;;18.20;79.71;100636.22;4205796;28;20240;-70
2023/09/10 05:44:52;;;;;;;29.40;16.67;;;;;;;18.09;80.36;100634.00;4210305;28;22913;-72
2023/09/10 05:47:20;;;;;;;33.70;17.83;;;;;;;18.13;80.14;100634.47;4182329;28;26031;-71
2023/09/10 05:49:48;;;;;;;24.80;16.57;;;;;;;18.12;80.50;100636.34;4180275;28;20224;-71
2023/09/10 05:52:15;;;;;;;31.53;17.33;;;;;;;18.27;79.71;100636.31;4206034;28;23635;-72
2023/09/10 05:54:42;;;;;;;29.53;17.43;;;;;;;18.29;79.64;100636.97;4201640;28;20295;-72
2023/09/10 05:57:09;;;;;;;31.50;16.83;;;;;;;18.34;79.46;100636.38;4202610;28;20453;-74
2023/09/10 05:59:35;;;;;;;30.67;17.47;;;;;;;18.51;78.92;100635.09;4204661;28;20310;-73
2023/09/10 06:02:02;;;;;;;29.50;16.73;;;;;;;18.59;78.90;100636.88;4208345;28;20500;-73
2023/09/10 06:04:29;;;;;;;25.07;16.40;;;;;;;18.72;77.79;100638.88;4195401;28;21092;-75
2023/09/10 06:06:55;;;;;;;25.90;16.80;;;;;;;18.84;77.58;100629.06;4209424;28;20239;-70
2023/09/10 06:09:22;;;;;;;29.83;16.27;;;;;;;18.83;77.05;100630.13;4199880;28;20230;-71
2023/09/10 06:11:49;;;;;;;32.77;16.80;;;;;;;18.99;76.44;100636.41;4206962;28;21971;-74
2023/09/10 06:14:15;;;;;;;29.37;17.27;;;;;;;18.90;76.93;100635.69;4210659;28;23033;-73
2023/09/10 06:16:42;;;;;;;23.00;16.93;;;;;;;19.00;76.71;100636.19;4180223;28;20242;-74
2023/09/10 06:19:09;;;;;;;28.57;16.30;;;;;;;19.16;76.05;100629.59;4200476;28;20306;-71
2023/09/10 06:21:36;;;;;;;25.43;16.63;;;;;;;19.13;76.01;100620.91;4212204;28;20740;-75
2023/09/10 06:24:03;;;;;;;28.17;16.33;;;;;;;18.97;77.25;100631.13;4215922;28;20250;-73
2023/09/10 06:26:29;;;;;;;29.37;15.67;;;;;;;19.10;76.75;100621.28;4206330;28;20231;-74
2023/09/10 06:28:56;;;;;;;26.50;15.60;;;;;;;19.40;74.94;100632.06;4177677;28;20237;-71
2023/09/10 06:31:23;;;;;;;27.83;15.87;;;;;;;19.70;74.30;100629.94;4210573;28;20739;-74
2023/09/10 06:33:49;;;;;;;29.17;16.07;;;;;;;19.78;73.79;100627.03;4205399;28;21226;-76
2023/09/10 06:38:48;;;;;;;30.00;15.87;;;;;;;20.10;73.46;100634.78;4285409;27;20691;-67
2023/09/10 06:41:18;;;;;;;30.23;16.57;;;;;;;19.89;73.94;100622.88;4275459;28;20229;-68
2023/09/10 06:43:44;;;;;;;33.17;15.47;;;;;;;20.26;72.94;100631.69;4261755;28;20238;-69
2023/09/10 06:46:11;;;;;;;23.17;14.97;;;;;;;20.41;72.06;100630.66;4261924;28;20243;-67
2023/09/10 06:48:37;;;;;;;25.37;15.87;;;;;;;20.59;71.07;100630.06;4281764;28;22014;-68
2023/09/10 06:51:05;;;;;;;26.50;15.27;;;;;;;20.89;69.89;100632.44;4270396;28;20235;-67
2023/09/10 06:55:03;;;;;;;31.83;16.37;;;;;;;20.94;69.88;100642.81;4281554;28;20384;-69
2023/09/10 06:57:30;;;;;;;28.27;15.37;;;;;;;20.88;70.53;100641.75;4247369;28;20290;-70
2023/09/10 06:59:58;;;;;;;29.47;15.87;;;;;;;21.13;69.15;100639.19;4241491;28;21115;-68
2023/09/10 07:02:25;;;;;;;28.63;14.87;;;;;;;21.44;68.30;100637.69;4236281;28;20396;-68
2023/09/10 07:04:52;;;;;;;32.93;15.23;;;;;;;22.75;63.64;100626.56;4262644;28;20502;-68
2023/09/10 07:07:19;;;;;;;23.13;13.73;;;;;;;24.47;59.17;100641.75;4246430;28;20225;-71
2023/09/10 07:09:47;;;;;;;24.80;13.83;;;;;;;26.11;53.63;100638.50;4242020;28;21801;-70
2023/09/10 07:12:14;;;;;;;30.33;13.47;;;;;;;26.80;50.69;100640.38;4267154;28;20243;-69
2023/09/10 07:14:40;;;;;;;26.03;12.67;;;;;;;28.44;45.96;100641.03;4241818;28;20243;-72
2023/09/10 07:17:07;;;;;;;24.13;12.50;;;;;;;29.33;43.51;100637.13;4247795;28;20249;-68
2023/09/10 07:19:34;;;;;;;21.02;12.25;;;;;;;29.86;42.28;100634.38;4233642;28;20230;-70
2023/09/10 07:22:01;;;;;;;28.23;13.30;;;;;;;29.65;42.32;100639.81;4250545;28;20234;-70
2023/09/10 07:24:27;;;;;;;25.98;13.75;;;;;;;30.77;40.02;100639.69;4263112;28;20252;-68
2023/09/10 07:26:54;;;;;;;18.13;11.60;;;;;;;32.14;37.25;100636.06;4231597;28;22036;-71
2023/09/10 07:29:22;;;;;;;24.48;12.88;;;;;;;31.67;38.00;100637.41;4241391;28;20237;-69
2023/09/10 07:31:48;;;;;;;22.52;12.10;;;;;;;32.48;36.46;100632.56;4213649;28;20240;-71
2023/09/10 07:34:15;;;;;;;22.75;11.85;;;;;;;32.88;35.92;100628.94;4235216;28;25827;-71
2023/09/10 07:36:44;;;;;;;21.70;12.33;;;;;;;32.95;36.01;100630.25;4249795;28;20243;-72
2023/09/10 07:39:11;;;;;;;18.95;11.95;;;;;;;33.88;34.80;100629.34;4245282;28;21359;-70
2023/09/10 07:42:27;;;;;;;22.15;12.07;;;;;;;34.83;32.83;100634.16;4291659;28;20890;-73
2023/09/10 07:44:54;;;;;;;25.40;12.48;;;;;;;32.45;36.35;100635.09;4248190;28;20230;-70
2023/09/10 07:47:21;;;;;;;23.60;11.75;;;;;;;32.23;37.26;100623.16;4254153;28;21981;-71
2023/09/10 07:49:51;;;;;;;24.77;12.18;;;;;;;33.12;35.57;100621.41;4252188;28;20835;-71
2023/09/10 07:52:18;;;;;;;26.67;10.98;;;;;;;32.92;36.13;100619.66;4251753;28;25490;-70
2023/09/10 07:54:45;;;;;;;28.00;11.35;;;;;;;32.15;37.21;100614.53;4254368;28;20242;-70
2023/09/10 07:57:11;;;;;;;24.58;11.90;;;;;;;31.26;38.75;100625.16;4256354;28;20590;-74
2023/09/10 07:59:41;;;;;;;19.10;10.20;;;;;;;32.68;36.21;100611.09;4264916;28;20238;-71
2023/09/10 08:02:08;;;;;;;16.08;8.95;;;;;;;34.01;33.45;100613.72;4263029;28;22584;-69
2023/09/10 08:04:35;;;;;;;17.42;10.10;;;;;;;34.17;33.21;100619.13;4273418;28;20468;-70
2023/09/10 08:07:04;;;;;;;22.27;9.63;;;;;;;34.18;33.79;100620.81;4254737;28;20338;-69
2023/09/10 08:09:34;;;;;;;20.98;10.05;;;;;;;34.47;33.29;100622.66;4279714;28;22555;-69
2023/09/10 08:12:01;;;;;;;15.23;10.07;;;;;;;35.03;32.48;100624.56;4266765;28;21796;-71
2023/09/10 08:14:28;;;;;;;20.00;9.65;;;;;;;34.72;32.42;100621.41;4254362;28;21647;-69
2023/09/10 08:16:55;;;;;;;13.13;9.00;;;;;;;34.47;33.28;100625.47;4272803;28;21780;-71
2023/09/10 08:19:22;;;;;;;19.30;9.77;;;;;;;33.71;34.21;100627.00;4274637;28;20238;-70
2023/09/10 08:21:48;;;;;;;17.92;8.35;;;;;;;32.58;35.71;100626.03;4256542;28;20347;-68
2023/09/10 08:24:15;;;;;;;21.92;8.98;;;;;;;30.42;39.40;100633.75;4256724;28;20332;-68
2023/09/10 08:26:42;;;;;;;19.02;8.93;;;;;;;29.45;41.97;100623.84;4232070;28;20361;-68
2023/09/10 08:29:09;;;;;;;22.73;9.68;;;;;;;29.49;42.23;100626.94;4249208;28;20284;-68
2023/09/10 08:31:35;;;;;;;20.08;8.65;;;;;;;29.31;42.44;100629.03;4231423;28;20305;-69
2023/09/10 08:34:02;;;;;;;20.88;9.13;;;;;;;28.90;43.55;100623.97;4245952;28;20239;-68
2023/09/10 08:36:29;;;;;;;15.15;8.93;;;;;;;29.35;42.25;100610.66;4260884;28;22093;-66
2023/09/10 08:38:56;;;;;;;18.50;9.05;;;;;;;28.73;44.31;100620.47;4241463;28;20594;-70
2023/09/10 08:41:32;;;;;;;18.15;8.75;;;;;;;29.23;43.81;100613.59;4241664;28;20344;-69
2023/09/10 08:44:02;;;;;;;16.73;9.25;;;;;;;29.60;42.60;100625.03;4247153;28;21057;-68
2023/09/10 08:46:32;;;;;;;16.65;9.52;;;;;;;29.78;41.75;100618.97;4290999;28;20601;-70
2023/09/10 08:49:00;;;;;;;18.15;8.73;;;;;;;29.92;41.21;100624.06;4248584;28;20244;-68
2023/09/10 08:51:28;;;;;;;14.88;8.73;;;;;;;29.63;42.62;100618.91;4244094;28;20451;-70
2023/09/10 08:53:57;;;;;;;20.88;9.70;;;;;;;29.24;43.25;100611.69;4232578;28;20249;-70
2023/09/10 08:56:24;;;;;;;16.10;8.48;;;;;;;29.12;43.18;100614.66;4213729;28;20232;-70
2023/09/10 08:58:52;;;;;;;15.38;9.30;;;;;;;29.03;44.37;100608.75;4239369;28;20417;-71
2023/09/10 09:01:19;;;;;;;13.15;8.88;;;;;;;28.49;44.32;100611.59;4239593;28;20552;-70
2023/09/10 09:03:47;;;;;;;20.75;8.63;;;;;;;28.09;45.15;100606.16;4234233;28;24541;-68
2023/09/10 09:06:15;;;;;;;16.25;8.07;;;;;;;28.44;44.40;100604.84;4219345;28;21824;-69
2023/09/10 09:08:51;;;;;;;17.52;8.40;;;;;;;28.94;42.48;100605.59;4219252;28;20230;-69
2023/09/10 09:11:22;;;;;;;17.90;8.40;;;;;;;28.70;43.08;100610.69;4232835;28;21241;-69
2023/09/10 09:13:52;;;;;;;17.95;7.78;;;;;;;28.41;43.95;100608.16;4214777;28;20588;-71
2023/09/10 09:16:21;;;;;;;15.40;7.80;;;;;;;28.55;43.11;100605.78;4226398;28;20239;-69
2023/09/10 09:18:49;;;;;;;15.05;7.70;;;;;;;28.49;43.89;100606.84;4251847;28;21666;-70
2023/09/10 09:21:23;;;;;;;15.13;8.30;;;;;;;28.48;44.21;100594.00;4214781;28;20243;-69
2023/09/10 09:23:57;;;;;;;12.50;7.93;;;;;;;28.23;44.23;100597.38;4230664;28;21093;-68
2023/09/10 09:26:24;;;;;;;13.32;7.95;;;;;;;28.34;43.19;100589.97;4213610;28;20683;-69
2023/09/10 09:28:51;;;;;;;15.15;8.52;;;;;;;28.29;43.68;100594.41;4229110;28;20290;-70
2023/09/10 09:31:21;;;;;;;16.48;7.43;;;;;;;27.92;45.18;100592.28;4227777;28;20235;-71
2023/09/10 09:33:49;;;;;;;15.43;8.13;;;;;;;27.68;46.15;100588.94;4235913;28;20357;-72
2023/09/10 09:36:16;;;;;;;19.30;8.30;;;;;;;27.51;46.45;100581.50;4242326;28;20239;-70
2023/09/10 09:38:45;;;;;;;17.58;7.35;;;;;;;27.87;45.03;100588.59;4250824;28;20451;-68
2023/09/10 09:41:16;;;;;;;17.27;7.72;;;;;;;27.91;45.25;100593.38;4276931;28;20248;-69
2023/09/10 09:43:43;;;;;;;16.27;7.95;;;;;;;27.79;45.13;100581.56;4232668;28;20610;-70
2023/09/10 09:46:10;;;;;;;22.55;8.45;;;;;;;27.59;46.35;100573.81;4279943;28;20238;-68
2023/09/10 09:48:38;;;;;;;29.38;8.60;;;;;;;27.67;46.10;100570.56;4298090;28;20486;-71
2023/09/10 09:51:06;;;;;;;13.43;7.57;;;;;;;27.58;46.27;100570.16;4291452;28;20552;-72
2023/09/10 09:53:39;;;;;;;17.70;7.85;;;;;;;27.38;46.79;100579.03;4354223;28;20251;-69
2023/09/10 09:56:08;;;;;;;13.80;7.20;;;;;;;27.42;46.79;100573.84;4270392;28;20337;-69
2023/09/10 09:58:34;;;;;;;16.17;7.18;;;;;;;27.53;45.91;100564.53;4305512;28;20230;-68
2023/09/10 10:01:01;;;;;;;16.27;6.85;;;;;;;27.65;46.23;100568.03;4230324;28;20505;-68
2023/09/10 10:03:33;;;;;;;19.42;7.78;;;;;;;27.66;46.56;100566.09;4217893;28;22637;-68
2023/09/10 10:06:02;;;;;;;12.30;7.10;;;;;;;27.80;45.74;100563.75;4237684;28;20228;-71
2023/09/10 10:08:29;;;;;;;20.98;7.07;;;;;;;27.92;45.78;100563.63;4252256;28;21058;-70
2023/09/10 10:14:04;;;;;;;13.27;7.20;;;;;;;27.76;45.30;100565.38;4311256;27;22315;-76
2023/09/10 10:16:31;;;;;;;16.25;7.10;;;;;;;27.95;45.49;100554.75;4277747;28;21772;-74
2023/09/10 10:18:59;;;;;;;18.33;7.23;;;;;;;27.96;45.43;100548.09;4280546;28;22627;-74
2023/09/10 10:21:27;;;;;;;20.57;6.83;;;;;;;27.98;45.67;100557.03;4266074;28;20262;-73
2023/09/10 10:23:56;;;;;;;20.48;7.53;;;;;;;27.42;46.30;100543.28;4281382;28;20253;-74
2023/09/10 10:26:24;;;;;;;15.85;7.60;;;;;;;27.83;45.98;100541.00;4271084;28;20321;-73
2023/09/10 10:28:52;;;;;;;15.27;6.85;;;;;;;28.13;45.20;100546.09;4266320;28;21930;-74
2023/09/10 10:31:22;;;;;;;16.90;8.33;;;;;;;27.96;45.89;100540.56;4255913;28;20241;-74
2023/09/10 10:33:57;;;;;;;13.57;6.83;;;;;;;27.88;45.38;100554.94;4250990;28;20235;-74
2023/09/10 10:36:36;;;;;;;14.53;7.33;;;;;;;27.88;44.94;100541.03;4278532;28;20367;-76
2023/09/10 10:39:09;;;;;;;18.63;7.00;;;;;;;27.87;45.14;100536.56;4260206;28;20311;-73
2023/09/10 10:41:42;;;;;;;12.95;6.93;;;;;;;27.83;45.30;100543.78;4316668;28;20231;-75
2023/09/10 10:44:21;;;;;;;16.20;6.72;;;;;;;28.05;44.77;100531.75;4262516;28;20257;-74
2023/09/10 10:46:59;;;;;;;15.70;7.25;;;;;;;27.82;45.66;100525.41;4257461;28;20226;-70
2023/09/10 10:49:29;;;;;;;18.25;7.13;;;;;;;27.79;46.23;100529.53;4284175;28;23499;-75
2023/09/10 10:52:01;;;;;;;18.85;6.97;;;;;;;28.03;44.91;100528.41;4254794;28;20354;-74
2023/09/10 10:54:30;;;;;;;16.35;6.25;;;;;;;28.25;43.96;100531.16;4280708;28;20294;-70
2023/09/10 10:56:57;;;;;;;21.25;7.07;;;;;;;27.91;45.80;100528.56;4259232;28;20226;-70
2023/09/10 10:59:25;;;;;;;18.40;6.88;;;;;;;28.17;44.36;100526.94;4270239;28;21158;-70
2023/09/10 11:02:22;;;;;;;14.13;7.25;;;;;;;28.38;43.99;100532.69;4248789;28;21500;-71
2023/09/10 11:04:59;;;;;;;16.27;7.03;;;;;;;28.37;43.39;100539.34;4276122;28;20244;-69
2023/09/10 11:07:29;;;;;;;15.23;7.03;;;;;;;28.36;43.43;100538.53;4289642;28;20232;-73
2023/09/10 11:09:57;;;;;;;16.13;7.40;;;;;;;28.36;43.86;100534.88;4268927;28;22370;-71
2023/09/10 11:12:27;;;;;;;13.95;6.63;;;;;;;28.39;43.72;100537.16;4303764;28;20353;-74
2023/09/10 11:14:59;;;;;;;20.58;7.75;;;;;;;28.77;43.21;100527.75;4264857;28;20235;-72
2023/09/10 11:17:33;;;;;;;14.45;7.38;;;;;;;28.44;43.99;100528.84;4285522;28;20244;-73
2023/09/10 11:20:00;;;;;;;16.73;7.05;;;;;;;28.19;44.31;100529.44;4259174;28;22333;-70
2023/09/10 11:22:27;;;;;;;20.92;6.97;;;;;;;28.07;44.60;100519.28;4272602;28;20307;-73
2023/09/10 11:25:01;;;;;;;14.30;7.38;;;;;;;28.39;44.64;100523.22;4242870;28;20261;-74